createdAt,value
2023-04-25T00:00:12.617Z,98.40
2023-04-25T00:05:16.429Z,97.80
2023-04-25T00:10:19.999Z,96.60
2023-04-25T00:15:22.475Z,96.50
2023-04-25T00:20:25.868Z,96.00
2023-04-25T00:25:28.650Z,95.10
2023-04-25T00:30:31.056Z,94.80
2023-04-25T00:35:33.751Z,94.50
2023-04-25T00:40:36.685Z,94.30
2023-04-25T00:45:41.169Z,94.50
2023-04-25T00:50:51.458Z,94.40
2023-04-25T00:55:54.914Z,94.80
2023-04-25T01:00:59.102Z,94.60
2023-04-25T01:06:02.765Z,94.80
2023-04-25T01:11:05.655Z,94.80
2023-04-25T01:16:08.254Z,95.20
2023-04-25T01:21:12.200Z,95.10
2023-04-25T01:26:15.547Z,95.10
2023-04-25T01:31:20.662Z,95.10
2023-04-25T01:36:23.702Z,95.10
2023-04-25T01:41:26.429Z,95.80
2023-04-25T01:46:29.822Z,96.10
2023-04-25T01:51:32.758Z,96.80
2023-04-25T01:56:38.905Z,97.10
2023-04-25T02:01:43.705Z,97.50
2023-04-25T02:06:58.086Z,98.40
2023-04-25T02:12:10.909Z,98.70
2023-04-25T02:17:32.802Z,99.40
2023-04-25T02:22:36.524Z,99.60
2023-04-25T02:27:41.715Z,99.80
2023-04-25T02:32:44.569Z,99.60
2023-04-25T02:37:47.060Z,99.90
2023-04-25T02:42:49.746Z,99.50
2023-04-25T02:47:52.797Z,99.70
2023-04-25T02:52:55.796Z,99.90
2023-04-25T02:58:03.702Z,99.90
2023-04-25T03:03:26.378Z,99.90
2023-04-25T03:08:33.525Z,99.90
2023-04-25T03:13:36.916Z,99.90
2023-04-25T03:18:40.356Z,99.90
2023-04-25T03:23:42.858Z,99.90
2023-04-25T03:28:45.356Z,99.90
2023-04-25T03:33:49.495Z,99.90
2023-04-25T03:38:54.848Z,99.90
2023-04-25T03:43:58.434Z,99.90
2023-04-25T03:49:01.731Z,99.90
2023-04-25T03:54:18.332Z,99.90
2023-04-25T03:59:31.465Z,99.90
2023-04-25T04:04:34.178Z,99.90
2023-04-25T04:09:37.500Z,99.90
2023-04-25T04:14:44.651Z,99.90
2023-04-25T04:19:47.140Z,99.90
2023-04-25T04:24:55.413Z,99.90
2023-04-25T04:30:14.209Z,99.90
2023-04-25T04:35:31.868Z,99.90
2023-04-25T04:40:35.882Z,99.90
2023-04-25T04:46:05.464Z,99.90
2023-04-25T04:51:37.570Z,99.90
2023-04-25T04:57:00.660Z,99.90
2023-04-25T05:02:12.337Z,99.90
2023-04-25T05:07:33.209Z,99.90
2023-04-25T05:12:41.454Z,99.90
2023-04-25T05:18:09.308Z,99.90
2023-04-25T05:23:23.456Z,99.90
2023-04-25T05:28:39.248Z,99.40
2023-04-25T05:33:44.800Z,99.40
2023-04-25T05:38:48.187Z,98.70
2023-04-25T05:43:51.488Z,98.60
2023-04-25T05:49:09.910Z,97.60
2023-04-25T05:54:19.697Z,97.20
2023-04-25T05:59:22.440Z,97.10
2023-04-25T06:04:26.696Z,96.10
2023-04-25T06:09:30.529Z,96.60
2023-04-25T06:14:33.067Z,95.70
2023-04-25T06:19:37.326Z,95.40
2023-04-25T06:24:40.383Z,94.00
2023-04-25T06:29:43.760Z,94.10
2023-04-25T06:34:46.686Z,92.00
2023-04-25T06:39:49.331Z,91.50
2023-04-25T06:44:52.302Z,91.70
2023-04-25T06:49:56.312Z,91.50
2023-04-25T06:54:59.594Z,90.30
2023-04-25T07:00:22.127Z,90.50
2023-04-25T07:05:24.933Z,89.60
2023-04-25T07:10:31.009Z,88.20
2023-04-25T07:15:33.844Z,89.20
2023-04-25T07:20:37.932Z,87.40
2023-04-25T07:25:40.888Z,88.60
2023-04-25T07:30:44.638Z,87.00
2023-04-25T07:35:47.112Z,86.50
2023-04-25T07:40:51.017Z,86.80
2023-04-25T07:45:53.604Z,85.90
2023-04-25T07:50:57.552Z,85.00
2023-04-25T07:56:00.485Z,83.60
2023-04-25T08:01:06.688Z,81.20
2023-04-25T08:06:32.723Z,81.10
2023-04-25T08:11:44.492Z,82.40
2023-04-25T08:16:50.698Z,82.40
2023-04-25T08:21:56.717Z,82.40
2023-04-25T08:27:05.586Z,81.30
2023-04-25T08:32:08.161Z,81.10
2023-04-25T08:37:15.236Z,78.80
2023-04-25T08:42:30.051Z,79.00
2023-04-25T08:47:38.373Z,78.20
2023-04-25T08:52:47.113Z,76.50
2023-04-25T08:57:51.849Z,75.10
2023-04-25T09:02:56.236Z,74.70
2023-04-25T09:07:59.360Z,74.70
2023-04-25T09:13:14.065Z,74.90
2023-04-25T09:18:36.604Z,70.30
2023-04-25T09:23:43.252Z,71.90
2023-04-25T09:28:46.945Z,70.20
2023-04-25T09:33:59.838Z,72.40
2023-04-25T09:39:04.706Z,68.00
2023-04-25T09:44:14.233Z,69.10
2023-04-25T09:49:21.373Z,68.80
2023-04-25T09:54:40.540Z,68.30
2023-04-25T09:59:54.315Z,67.00
2023-04-25T10:04:57.723Z,69.00
2023-04-25T10:10:12.765Z,71.80
2023-04-25T10:15:17.373Z,68.70
2023-04-25T10:20:25.801Z,72.00
2023-04-25T10:25:28.547Z,70.10
2023-04-25T10:30:38.054Z,70.80
2023-04-25T10:35:41.661Z,66.80
2023-04-25T10:41:05.080Z,68.70
2023-04-25T10:46:32.985Z,71.00
2023-04-25T10:51:54.513Z,71.50
2023-04-25T10:56:59.991Z,69.70
2023-04-25T11:02:14.688Z,69.50
2023-04-25T11:07:34.461Z,70.90
2023-04-25T11:12:37.009Z,69.00
2023-04-25T11:17:41.737Z,69.90
2023-04-25T11:22:50.360Z,72.00
2023-04-25T11:27:55.826Z,68.70
2023-04-25T11:32:58.665Z,67.50
2023-04-25T11:38:02.424Z,62.10
2023-04-25T11:43:04.861Z,60.10
2023-04-25T11:48:07.384Z,58.00
2023-04-25T11:53:09.901Z,60.00
2023-04-25T11:58:14.621Z,60.50
2023-04-25T12:03:19.191Z,60.00
2023-04-25T12:08:22.093Z,62.00
2023-04-25T12:13:26.765Z,64.10
2023-04-25T12:18:29.417Z,64.50
2023-04-25T12:23:32.689Z,65.90
2023-04-25T12:28:35.462Z,67.30
2023-04-25T12:33:39.220Z,69.70
2023-04-25T12:38:43.295Z,69.60
2023-04-25T12:43:45.838Z,67.70
2023-04-25T12:48:51.021Z,64.20
2023-04-25T12:53:53.676Z,65.50
2023-04-25T12:58:56.517Z,67.10
2023-04-25T13:03:59.442Z,67.50
2023-04-25T13:09:02.648Z,66.40
2023-04-25T13:14:06.120Z,63.10
2023-04-25T13:19:09.459Z,61.20
2023-04-25T13:24:11.911Z,57.70
2023-04-25T13:29:14.528Z,59.40
2023-04-25T13:34:17.089Z,61.50
2023-04-25T13:39:19.495Z,81.50
2023-04-25T13:44:21.901Z,88.20
2023-04-25T13:49:24.274Z,89.90
2023-04-25T13:54:27.021Z,84.10
2023-04-25T13:59:29.881Z,81.70
2023-04-25T14:04:33.588Z,82.10
2023-04-25T14:09:36.623Z,77.70
2023-04-25T14:14:39.246Z,75.70
2023-04-25T14:25:16.229Z,75.90
2023-04-25T14:30:20.272Z,74.30
2023-04-25T14:35:25.141Z,76.20
2023-04-25T14:40:28.407Z,77.70
2023-04-25T14:45:31.087Z,88.40
2023-04-25T14:50:33.945Z,94.40
2023-04-25T14:55:36.544Z,99.50
2023-04-25T15:00:39.238Z,98.40
2023-04-25T15:05:42.437Z,97.50
2023-04-25T15:10:46.427Z,96.30
2023-04-25T15:15:52.428Z,94.70
2023-04-25T15:20:55.241Z,91.70
2023-04-25T15:25:57.745Z,86.10
2023-04-25T15:31:00.412Z,78.80
2023-04-25T15:36:04.460Z,79.50
2023-04-25T15:41:07.103Z,80.40
2023-04-25T15:46:09.635Z,77.20
2023-04-25T15:51:12.605Z,79.10
2023-04-25T15:56:15.051Z,81.70
2023-04-25T16:01:17.646Z,77.90
2023-04-25T16:06:20.658Z,78.40
2023-04-25T16:11:23.468Z,74.70
2023-04-25T16:16:26.580Z,72.20
2023-04-25T16:21:29.129Z,71.60
2023-04-25T16:26:31.604Z,71.70
2023-04-25T16:31:38.101Z,73.30
2023-04-25T16:36:41.515Z,73.30
2023-04-25T16:41:44.036Z,73.60
2023-04-25T16:46:46.519Z,73.70
2023-04-25T16:51:49.148Z,74.50
2023-04-25T16:56:52.622Z,72.90
2023-04-25T17:01:55.135Z,70.50
2023-04-25T17:06:58.014Z,69.80
2023-04-25T17:12:00.639Z,68.10
2023-04-25T17:17:03.863Z,66.50
2023-04-25T17:22:07.245Z,65.10
2023-04-25T17:27:10.629Z,66.70
2023-04-25T17:32:14.623Z,66.40
2023-04-25T17:37:19.007Z,67.20
2023-04-25T17:42:21.621Z,67.00
2023-04-25T17:47:24.367Z,67.10
2023-04-25T17:52:52.362Z,66.50
2023-04-25T17:57:56.074Z,68.70
2023-04-25T18:03:24.329Z,68.80
2023-04-25T18:08:27.462Z,68.80
2023-04-25T18:13:30.091Z,69.30
2023-04-25T18:18:34.630Z,69.40
2023-04-25T18:23:37.529Z,70.60
2023-04-25T18:28:39.968Z,71.30
2023-04-25T18:33:42.631Z,72.70
2023-04-25T18:38:45.179Z,72.90
2023-04-25T18:43:47.880Z,74.50
2023-04-25T18:48:53.840Z,74.20
2023-04-25T18:54:00.515Z,73.50
2023-04-25T18:59:03.201Z,73.40
2023-04-25T19:04:07.016Z,73.10
2023-04-25T19:09:10.640Z,73.40
2023-04-25T19:14:14.569Z,74.00
2023-04-25T19:19:17.062Z,74.00
2023-04-25T19:24:19.596Z,73.90
2023-04-25T19:29:22.266Z,74.10
2023-04-25T19:34:24.849Z,74.30
2023-04-25T19:39:28.056Z,74.30
2023-04-25T19:44:30.614Z,74.50
2023-04-25T19:49:33.111Z,74.60
2023-04-25T19:54:35.618Z,74.80
2023-04-25T19:59:38.605Z,73.20
2023-04-25T20:04:41.955Z,71.80
2023-04-25T20:09:45.026Z,70.50
2023-04-25T20:14:47.711Z,70.20
2023-04-25T20:19:50.477Z,69.60
2023-04-25T20:24:52.940Z,69.70
2023-04-25T20:29:55.505Z,69.40
2023-04-25T20:34:58.378Z,69.10
2023-04-25T20:40:03.297Z,69.50
2023-04-25T20:45:08.031Z,69.20
2023-04-25T20:50:12.241Z,69.80
2023-04-25T20:55:14.843Z,70.30
2023-04-25T21:00:18.552Z,70.00
2023-04-25T21:05:22.388Z,70.30
2023-04-25T21:10:25.215Z,69.70
2023-04-25T21:15:28.241Z,70.10
2023-04-25T21:20:30.823Z,70.60
2023-04-25T21:25:33.822Z,70.50
2023-04-25T21:30:36.355Z,71.20
2023-04-25T21:35:39.973Z,71.60
2023-04-25T21:40:42.481Z,71.90
2023-04-25T21:50:55.772Z,73.00
2023-04-25T21:55:58.274Z,73.60
2023-04-25T22:01:00.932Z,74.10
2023-04-25T22:06:04.038Z,74.70
2023-04-25T22:11:07.843Z,74.70
2023-04-25T22:16:12.284Z,75.40
2023-04-25T22:21:15.102Z,76.00
2023-04-25T22:26:18.102Z,76.60
2023-04-25T22:31:20.746Z,77.40
2023-04-25T22:36:24.152Z,77.60
2023-04-25T22:41:26.825Z,78.40
2023-04-25T22:46:30.046Z,79.00
2023-04-25T22:51:33.259Z,79.60
2023-04-25T22:56:35.707Z,80.20
2023-04-25T23:01:38.242Z,80.50
2023-04-25T23:06:41.064Z,80.60
2023-04-25T23:11:43.702Z,80.70
2023-04-25T23:16:46.355Z,81.30
2023-04-25T23:21:48.940Z,81.70
2023-04-25T23:26:52.002Z,81.70
2023-04-25T23:31:54.480Z,82.10
2023-04-25T23:36:58.107Z,81.30
2023-04-25T23:42:00.631Z,81.40
2023-04-25T23:47:03.185Z,81.00
2023-04-25T23:52:05.864Z,81.40
2023-04-25T23:57:08.378Z,81.20
